LAN3201 SPJC-SLVR
Flight info
| Callsign | LAN3201 |
|---|---|
| Flight time | N/A |
| Altitude | 35000 |
| Route | KULIS UM415 VIR |
| Aircraft | A320/M-SDE3FGHIRWY/LB1 |
Departure
| Time | N/A |
|---|---|
| Airport | Jorge Chávez International Airport (SPJC) |
Arrival
| Time | 2026-05-08 18:38 |
|---|---|
| Airport | Viru Viru International Airport (SLVR) |
| Time | Latitude | Longitude | Altitude | Speed | Heading |
|---|---|---|---|---|---|
| 2026-05-08 17:14 | -15.12980 | -70.98989 | 35040 ft | 482 kts | 115° |
| 2026-05-08 17:14 | -15.14275 | -70.95791 | 35042 ft | 482 kts | 115° |
| 2026-05-08 17:14 | -15.16868 | -70.89395 | 35044 ft | 481 kts | 115° |
| 2026-05-08 17:15 | -15.19454 | -70.83010 | 35043 ft | 482 kts | 115° |
| 2026-05-08 17:15 | -15.22038 | -70.76612 | 35048 ft | 482 kts | 114° |
| 2026-05-08 17:16 | -15.24198 | -70.71296 | 35037 ft | 481 kts | 114° |
| 2026-05-08 17:16 | -15.26796 | -70.64902 | 35034 ft | 482 kts | 115° |
| 2026-05-08 17:17 | -15.29372 | -70.58507 | 35020 ft | 481 kts | 114° |
| 2026-05-08 17:17 | -15.31933 | -70.52109 | 35006 ft | 481 kts | 114° |
| 2026-05-08 17:18 | -15.34522 | -70.45677 | 35088 ft | 480 kts | 114° |
| 2026-05-08 17:18 | -15.37099 | -70.39292 | 35222 ft | 480 kts | 114° |
| 2026-05-08 17:19 | -15.39672 | -70.32902 | 35359 ft | 480 kts | 114° |
| 2026-05-08 17:19 | -15.42236 | -70.26515 | 35499 ft | 480 kts | 114° |
| 2026-05-08 17:20 | -15.44791 | -70.20126 | 35548 ft | 480 kts | 114° |
| 2026-05-08 17:20 | -15.47321 | -70.13726 | 35546 ft | 480 kts | 112° |
| 2026-05-08 17:21 | -15.49547 | -70.07208 | 35543 ft | 480 kts | 109° |
| 2026-05-08 17:21 | -15.51596 | -70.00613 | 35407 ft | 480 kts | 109° |
| 2026-05-08 17:22 | -15.53673 | -69.94038 | 35267 ft | 480 kts | 109° |
| 2026-05-08 17:22 | -15.55820 | -69.87480 | 35131 ft | 480 kts | 110° |
| 2026-05-08 17:23 | -15.57975 | -69.80929 | 34997 ft | 480 kts | 109° |
| 2026-05-08 17:23 | -15.60118 | -69.74375 | 34993 ft | 480 kts | 109° |
| 2026-05-08 17:24 | -15.62250 | -69.67819 | 35000 ft | 480 kts | 109° |
| 2026-05-08 17:24 | -15.64402 | -69.61210 | 35005 ft | 480 kts | 109° |
| 2026-05-08 17:25 | -15.66534 | -69.54644 | 35011 ft | 481 kts | 109° |
| 2026-05-08 17:25 | -15.68661 | -69.48067 | 35022 ft | 481 kts | 109° |
| 2026-05-08 17:26 | -15.70779 | -69.41480 | 35021 ft | 481 kts | 109° |
| 2026-05-08 17:26 | -15.72889 | -69.34897 | 35015 ft | 481 kts | 108° |
| 2026-05-08 17:27 | -15.74933 | -69.28286 | 35012 ft | 481 kts | 108° |
| 2026-05-08 17:27 | -15.76950 | -69.21668 | 35006 ft | 481 kts | 108° |
| 2026-05-08 17:28 | -15.78976 | -69.15048 | 35000 ft | 481 kts | 108° |
| 2026-05-08 17:28 | -15.81012 | -69.08432 | 34995 ft | 481 kts | 108° |
| 2026-05-08 17:29 | -15.83058 | -69.01814 | 34988 ft | 481 kts | 108° |
| 2026-05-08 17:29 | -15.85105 | -68.95191 | 34988 ft | 482 kts | 108° |
| 2026-05-08 17:30 | -15.87144 | -68.88566 | 34989 ft | 481 kts | 108° |
| 2026-05-08 17:30 | -15.89172 | -68.81938 | 34996 ft | 481 kts | 108° |
| 2026-05-08 17:31 | -15.91204 | -68.75260 | 35000 ft | 481 kts | 108° |
| 2026-05-08 17:31 | -15.93229 | -68.68631 | 35010 ft | 481 kts | 108° |
| 2026-05-08 17:32 | -15.95247 | -68.62000 | 35017 ft | 481 kts | 108° |
| 2026-05-08 17:32 | -15.97267 | -68.55379 | 35024 ft | 481 kts | 108° |
| 2026-05-08 17:33 | -15.99290 | -68.48741 | 35037 ft | 481 kts | 108° |
| 2026-05-08 17:33 | -16.01307 | -68.42104 | 35041 ft | 481 kts | 108° |
| 2026-05-08 17:34 | -16.03336 | -68.35479 | 35041 ft | 482 kts | 108° |
| 2026-05-08 17:34 | -16.05372 | -68.28854 | 35037 ft | 481 kts | 108° |
| 2026-05-08 17:35 | -16.07398 | -68.22226 | 35033 ft | 481 kts | 108° |
| 2026-05-08 17:35 | -16.09385 | -68.15721 | 35025 ft | 482 kts | 107° |
| 2026-05-08 17:36 | -16.11426 | -68.09085 | 35012 ft | 482 kts | 108° |
| 2026-05-08 17:36 | -16.13469 | -68.02445 | 35006 ft | 483 kts | 108° |
| 2026-05-08 17:37 | -16.15509 | -67.95789 | 34995 ft | 483 kts | 108° |
| 2026-05-08 17:37 | -16.17546 | -67.89120 | 34989 ft | 484 kts | 108° |
| 2026-05-08 17:38 | -16.19575 | -67.82456 | 34991 ft | 484 kts | 108° |
| 2026-05-08 17:38 | -16.21628 | -67.75733 | 34979 ft | 484 kts | 108° |
| 2026-05-08 17:39 | -16.23657 | -67.69063 | 34977 ft | 484 kts | 108° |
| 2026-05-08 17:39 | -16.25715 | -67.62397 | 34970 ft | 483 kts | 108° |
| 2026-05-08 17:40 | -16.27787 | -67.55740 | 34972 ft | 483 kts | 108° |
| 2026-05-08 17:40 | -16.29859 | -67.49083 | 34977 ft | 484 kts | 108° |
| 2026-05-08 17:41 | -16.31930 | -67.42409 | 34975 ft | 484 kts | 108° |
| 2026-05-08 17:41 | -16.33992 | -67.35741 | 34986 ft | 484 kts | 108° |
| 2026-05-08 17:42 | -16.36050 | -67.29060 | 34992 ft | 485 kts | 108° |
| 2026-05-08 17:42 | -16.38106 | -67.22367 | 35005 ft | 485 kts | 108° |
| 2026-05-08 17:43 | -16.40165 | -67.15682 | 35021 ft | 485 kts | 108° |
| 2026-05-08 17:43 | -16.42214 | -67.08992 | 35036 ft | 485 kts | 107° |
| 2026-05-08 17:44 | -16.44269 | -67.02298 | 35052 ft | 485 kts | 108° |
| 2026-05-08 17:44 | -16.46326 | -66.95600 | 35057 ft | 485 kts | 107° |
| 2026-05-08 17:45 | -16.48375 | -66.88906 | 35077 ft | 485 kts | 107° |
| 2026-05-08 17:45 | -16.50424 | -66.82207 | 35099 ft | 486 kts | 107° |
| 2026-05-08 17:46 | -16.52489 | -66.75450 | 35108 ft | 486 kts | 107° |
| 2026-05-08 17:46 | -16.54537 | -66.68731 | 35128 ft | 486 kts | 107° |
| 2026-05-08 17:47 | -16.56590 | -66.62012 | 35141 ft | 487 kts | 107° |
| 2026-05-08 17:47 | -16.58292 | -66.56421 | 35154 ft | 487 kts | 107° |
| 2026-05-08 17:48 | -16.60684 | -66.48543 | 35161 ft | 486 kts | 107° |
| 2026-05-08 17:48 | -16.62706 | -66.41876 | 35167 ft | 481 kts | 107° |
| 2026-05-08 17:49 | -16.64723 | -66.35213 | 35175 ft | 482 kts | 107° |
| 2026-05-08 17:49 | -16.66748 | -66.28549 | 35183 ft | 481 kts | 107° |
| 2026-05-08 17:50 | -16.68437 | -66.23025 | 35184 ft | 481 kts | 107° |
| 2026-05-08 17:50 | -16.70468 | -66.16368 | 35188 ft | 482 kts | 107° |
| 2026-05-08 17:51 | -16.72511 | -66.09662 | 35183 ft | 481 kts | 107° |
| 2026-05-08 17:51 | -16.74530 | -66.03009 | 35183 ft | 481 kts | 107° |
| 2026-05-08 17:52 | -16.76545 | -65.96351 | 35174 ft | 482 kts | 107° |
| 2026-05-08 17:53 | -16.79579 | -65.86325 | 35171 ft | 483 kts | 107° |
| 2026-05-08 17:53 | -16.81600 | -65.79645 | 35165 ft | 483 kts | 107° |
| 2026-05-08 17:54 | -16.83621 | -65.72961 | 35159 ft | 483 kts | 107° |
| 2026-05-08 17:54 | -16.85682 | -65.66276 | 35155 ft | 483 kts | 107° |
| 2026-05-08 17:55 | -16.87772 | -65.59602 | 35156 ft | 484 kts | 107° |
| 2026-05-08 17:55 | -16.89857 | -65.52919 | 35144 ft | 484 kts | 107° |
| 2026-05-08 17:56 | -16.91935 | -65.46239 | 35144 ft | 484 kts | 107° |
| 2026-05-08 17:56 | -16.94007 | -65.39546 | 35139 ft | 484 kts | 107° |
| 2026-05-08 17:57 | -16.96076 | -65.32850 | 35134 ft | 485 kts | 107° |
| 2026-05-08 17:57 | -16.98147 | -65.26152 | 35130 ft | 484 kts | 107° |
| 2026-05-08 17:58 | -17.00213 | -65.19453 | 35128 ft | 484 kts | 107° |
| 2026-05-08 17:58 | -17.02278 | -65.12750 | 35126 ft | 484 kts | 107° |
| 2026-05-08 17:59 | -17.04340 | -65.06053 | 35121 ft | 484 kts | 107° |
| 2026-05-08 17:59 | -17.06408 | -64.99307 | 35117 ft | 484 kts | 107° |
| 2026-05-08 18:00 | -17.08461 | -64.92608 | 35102 ft | 484 kts | 108° |
| 2026-05-08 18:00 | -17.11549 | -64.82563 | 35098 ft | 484 kts | 108° |
| 2026-05-08 18:01 | -17.13591 | -64.75858 | 35090 ft | 484 kts | 108° |
| 2026-05-08 18:01 | -17.15630 | -64.69146 | 35090 ft | 484 kts | 108° |
| 2026-05-08 18:02 | -17.17330 | -64.63567 | 35086 ft | 485 kts | 108° |
| 2026-05-08 18:02 | -17.19726 | -64.55719 | 35089 ft | 485 kts | 108° |
| 2026-05-08 18:03 | -17.21774 | -64.48988 | 35086 ft | 485 kts | 107° |
| 2026-05-08 18:03 | -17.23180 | -64.42089 | 35085 ft | 485 kts | 99° |
| 2026-05-08 18:04 | -17.24246 | -64.35121 | 35085 ft | 486 kts | 97° |
| 2026-05-08 18:04 | -17.25257 | -64.28129 | 35074 ft | 486 kts | 98° |
| 2026-05-08 18:05 | -17.26332 | -64.21148 | 35071 ft | 487 kts | 98° |
| 2026-05-08 18:05 | -17.27454 | -64.14165 | 35071 ft | 487 kts | 99° |
| 2026-05-08 18:06 | -17.28577 | -64.07183 | 35072 ft | 486 kts | 99° |
| 2026-05-08 18:06 | -17.29685 | -64.00156 | 35064 ft | 486 kts | 98° |
| 2026-05-08 18:07 | -17.30774 | -63.93169 | 35063 ft | 487 kts | 98° |
| 2026-05-08 18:07 | -17.31862 | -63.86176 | 35057 ft | 487 kts | 98° |
| 2026-05-08 18:08 | -17.32952 | -63.79182 | 35057 ft | 487 kts | 98° |
| 2026-05-08 18:08 | -17.34050 | -63.72197 | 35050 ft | 487 kts | 99° |
| 2026-05-08 18:09 | -17.35146 | -63.65208 | 35047 ft | 487 kts | 98° |
| 2026-05-08 18:09 | -17.36241 | -63.58213 | 35045 ft | 487 kts | 98° |
| 2026-05-08 18:10 | -17.37323 | -63.51216 | 35039 ft | 487 kts | 98° |
| 2026-05-08 18:10 | -17.38391 | -63.44222 | 34782 ft | 485 kts | 98° |
| 2026-05-08 18:11 | -17.38915 | -63.40798 | 34347 ft | 481 kts | 98° |
| 2026-05-08 18:11 | -17.39443 | -63.37349 | 33905 ft | 478 kts | 99° |
| 2026-05-08 18:11 | -17.39967 | -63.33949 | 33727 ft | 467 kts | 99° |
| 2026-05-08 18:11 | -17.40478 | -63.30633 | 33401 ft | 460 kts | 99° |
| 2026-05-08 18:12 | -17.41216 | -63.27388 | 32975 ft | 454 kts | 113° |
| 2026-05-08 18:12 | -17.42680 | -63.24530 | 32847 ft | 437 kts | 131° |
| 2026-05-08 18:12 | -17.44718 | -63.22289 | 32690 ft | 418 kts | 147° |
| 2026-05-08 18:12 | -17.47115 | -63.20693 | 32383 ft | 401 kts | 162° |
| 2026-05-08 18:13 | -17.49700 | -63.19743 | 32026 ft | 387 kts | 175° |
| 2026-05-08 18:13 | -17.52314 | -63.19368 | 31659 ft | 374 kts | 186° |
| 2026-05-08 18:13 | -17.54868 | -63.19486 | 31296 ft | 362 kts | 196° |
| 2026-05-08 18:13 | -17.57315 | -63.20061 | 30935 ft | 350 kts | 206° |
| 2026-05-08 18:14 | -17.59513 | -63.21040 | 30569 ft | 339 kts | 216° |
| 2026-05-08 18:14 | -17.61457 | -63.22375 | 30198 ft | 330 kts | 226° |
| 2026-05-08 18:14 | -17.63121 | -63.23989 | 29657 ft | 324 kts | 233° |
| 2026-05-08 18:14 | -17.64510 | -63.25869 | 28611 ft | 327 kts | 243° |
| 2026-05-08 18:15 | -17.65564 | -63.27965 | 27846 ft | 323 kts | 250° |
| 2026-05-08 18:15 | -17.66278 | -63.30175 | 27198 ft | 318 kts | 258° |
| 2026-05-08 18:15 | -17.66645 | -63.32437 | 26576 ft | 313 kts | 266° |
| 2026-05-08 18:15 | -17.66667 | -63.34701 | 25972 ft | 309 kts | 274° |
| 2026-05-08 18:16 | -17.66353 | -63.36918 | 25383 ft | 307 kts | 282° |
| 2026-05-08 18:16 | -17.65714 | -63.39042 | 24826 ft | 305 kts | 290° |
| 2026-05-08 18:16 | -17.64775 | -63.41032 | 24270 ft | 305 kts | 298° |
| 2026-05-08 18:16 | -17.63557 | -63.42846 | 23736 ft | 305 kts | 306° |
| 2026-05-08 18:17 | -17.62084 | -63.44446 | 23149 ft | 305 kts | 314° |
| 2026-05-08 18:17 | -17.60455 | -63.45868 | 22566 ft | 304 kts | 318° |
| 2026-05-08 18:17 | -17.58754 | -63.47181 | 21997 ft | 303 kts | 320° |
| 2026-05-08 18:17 | -17.57034 | -63.48439 | 21450 ft | 300 kts | 321° |
| 2026-05-08 18:18 | -17.55320 | -63.49678 | 20923 ft | 298 kts | 321° |
| 2026-05-08 18:18 | -17.53622 | -63.50913 | 20422 ft | 296 kts | 321° |
| 2026-05-08 18:18 | -17.51945 | -63.52147 | 19943 ft | 293 kts | 321° |
| 2026-05-08 18:18 | -17.50285 | -63.53379 | 19446 ft | 291 kts | 320° |
| 2026-05-08 18:19 | -17.48641 | -63.54609 | 18965 ft | 289 kts | 320° |
| 2026-05-08 18:19 | -17.47013 | -63.55833 | 18492 ft | 287 kts | 320° |
| 2026-05-08 18:19 | -17.45399 | -63.57051 | 17995 ft | 285 kts | 320° |
| 2026-05-08 18:19 | -17.43782 | -63.58238 | 17483 ft | 283 kts | 325° |
| 2026-05-08 18:20 | -17.42043 | -63.59195 | 17014 ft | 282 kts | 334° |
| 2026-05-08 18:20 | -17.40160 | -63.59857 | 16557 ft | 282 kts | 343° |
| 2026-05-08 18:20 | -17.38230 | -63.60182 | 16133 ft | 281 kts | 352° |
| 2026-05-08 18:20 | -17.36279 | -63.60172 | 15700 ft | 280 kts | 1° |
| 2026-05-08 18:21 | -17.34359 | -63.59833 | 15288 ft | 280 kts | 11° |
| 2026-05-08 18:21 | -17.32517 | -63.59180 | 14879 ft | 280 kts | 19° |
| 2026-05-08 18:21 | -17.30801 | -63.58226 | 14477 ft | 280 kts | 28° |
| 2026-05-08 18:21 | -17.29255 | -63.56992 | 14102 ft | 280 kts | 38° |
| 2026-05-08 18:22 | -17.28345 | -63.56040 | 13846 ft | 280 kts | 44° |
| 2026-05-08 18:22 | -17.27163 | -63.54420 | 13391 ft | 281 kts | 53° |
| 2026-05-08 18:22 | -17.26241 | -63.52615 | 12927 ft | 283 kts | 62° |
| 2026-05-08 18:22 | -17.25462 | -63.49979 | 12280 ft | 285 kts | 75° |
| 2026-05-08 18:23 | -17.25284 | -63.48613 | 11968 ft | 287 kts | 82° |
| 2026-05-08 18:23 | -17.25289 | -63.46524 | 11484 ft | 289 kts | 92° |
| 2026-05-08 18:23 | -17.25628 | -63.44447 | 11007 ft | 290 kts | 102° |
| 2026-05-08 18:23 | -17.26291 | -63.42457 | 10556 ft | 291 kts | 113° |
| 2026-05-08 18:24 | -17.27266 | -63.40605 | 10118 ft | 291 kts | 123° |
| 2026-05-08 18:24 | -17.28516 | -63.38953 | 9690 ft | 289 kts | 134° |
| 2026-05-08 18:24 | -17.29985 | -63.37522 | 9204 ft | 287 kts | 141° |
| 2026-05-08 18:24 | -17.31570 | -63.36228 | 8713 ft | 284 kts | 145° |
| 2026-05-08 18:25 | -17.33173 | -63.35030 | 8203 ft | 282 kts | 146° |
| 2026-05-08 18:25 | -17.34779 | -63.33864 | 7704 ft | 280 kts | 147° |
| 2026-05-08 18:25 | -17.36376 | -63.32707 | 7226 ft | 278 kts | 146° |
| 2026-05-08 18:25 | -17.37954 | -63.31550 | 6750 ft | 276 kts | 146° |
| 2026-05-08 18:26 | -17.39515 | -63.30394 | 6290 ft | 274 kts | 145° |
| 2026-05-08 18:26 | -17.41070 | -63.29276 | 5858 ft | 268 kts | 153° |
| 2026-05-08 18:26 | -17.42810 | -63.28728 | 5467 ft | 258 kts | 179° |
| 2026-05-08 18:26 | -17.44541 | -63.28971 | 5102 ft | 248 kts | 204° |
| 2026-05-08 18:27 | -17.45986 | -63.29881 | 4727 ft | 240 kts | 226° |
| 2026-05-08 18:27 | -17.46689 | -63.30759 | 4445 ft | 237 kts | 239° |
| 2026-05-08 18:27 | -17.47330 | -63.32923 | 4028 ft | 234 kts | 267° |
| 2026-05-08 18:27 | -17.47088 | -63.34625 | 4037 ft | 243 kts | 289° |
| 2026-05-08 18:28 | -17.46262 | -63.36109 | 4021 ft | 230 kts | 312° |
| 2026-05-08 18:28 | -17.45081 | -63.37191 | 4034 ft | 224 kts | 322° |
| 2026-05-08 18:28 | -17.43829 | -63.38157 | 4028 ft | 223 kts | 325° |
| 2026-05-08 18:28 | -17.42563 | -63.39092 | 4034 ft | 222 kts | 325° |
| 2026-05-08 18:29 | -17.41297 | -63.40019 | 4036 ft | 222 kts | 325° |
| 2026-05-08 18:29 | -17.40032 | -63.40949 | 4037 ft | 221 kts | 325° |
| 2026-05-08 18:29 | -17.38725 | -63.41788 | 4037 ft | 221 kts | 338° |
| 2026-05-08 18:29 | -17.37246 | -63.42177 | 4040 ft | 220 kts | 358° |
| 2026-05-08 18:30 | -17.35743 | -63.42006 | 4039 ft | 217 kts | 19° |
| 2026-05-08 18:30 | -17.34404 | -63.41303 | 4038 ft | 215 kts | 39° |
| 2026-05-08 18:30 | -17.33393 | -63.40166 | 4040 ft | 214 kts | 59° |
| 2026-05-08 18:30 | -17.32822 | -63.38739 | 4038 ft | 213 kts | 79° |
| 2026-05-08 18:31 | -17.32757 | -63.37202 | 4031 ft | 212 kts | 99° |
| 2026-05-08 18:31 | -17.33199 | -63.35738 | 4031 ft | 212 kts | 119° |
| 2026-05-08 18:31 | -17.34091 | -63.34515 | 4035 ft | 213 kts | 137° |
| 2026-05-08 18:31 | -17.35235 | -63.33535 | 4036 ft | 213 kts | 143° |
| 2026-05-08 18:32 | -17.36436 | -63.32625 | 4035 ft | 213 kts | 145° |
| 2026-05-08 18:32 | -17.37649 | -63.31733 | 4031 ft | 213 kts | 145° |
| 2026-05-08 18:32 | -17.38855 | -63.30845 | 4032 ft | 211 kts | 145° |
| 2026-05-08 18:32 | -17.40056 | -63.29958 | 4033 ft | 211 kts | 145° |
| 2026-05-08 18:33 | -17.41282 | -63.29067 | 4025 ft | 211 kts | 147° |
| 2026-05-08 18:33 | -17.42517 | -63.28234 | 4035 ft | 211 kts | 148° |
| 2026-05-08 18:33 | -17.43760 | -63.27416 | 4014 ft | 211 kts | 148° |
| 2026-05-08 18:33 | -17.44999 | -63.26600 | 4024 ft | 211 kts | 148° |
| 2026-05-08 18:34 | -17.46238 | -63.25780 | 4024 ft | 210 kts | 148° |
| 2026-05-08 18:34 | -17.47466 | -63.24963 | 4025 ft | 209 kts | 148° |
| 2026-05-08 18:34 | -17.48692 | -63.24144 | 4021 ft | 209 kts | 148° |
| 2026-05-08 18:34 | -17.49913 | -63.23327 | 3934 ft | 206 kts | 148° |
| 2026-05-08 18:35 | -17.51091 | -63.22538 | 3812 ft | 196 kts | 148° |
| 2026-05-08 18:35 | -17.52219 | -63.21782 | 3692 ft | 190 kts | 148° |
| 2026-05-08 18:35 | -17.53316 | -63.21047 | 3581 ft | 181 kts | 148° |
| 2026-05-08 18:35 | -17.54330 | -63.20367 | 3368 ft | 166 kts | 148° |
| 2026-05-08 18:36 | -17.55267 | -63.19738 | 3150 ft | 154 kts | 148° |
| 2026-05-08 18:36 | -17.56133 | -63.19154 | 2923 ft | 144 kts | 148° |
| 2026-05-08 18:36 | -17.56954 | -63.18601 | 2634 ft | 138 kts | 147° |
| 2026-05-08 18:36 | -17.57760 | -63.18060 | 2303 ft | 138 kts | 147° |
| 2026-05-08 18:37 | -17.58643 | -63.17470 | 2113 ft | 157 kts | 147° |
| 2026-05-08 18:37 | -17.59547 | -63.16856 | 2049 ft | 154 kts | 146° |
| 2026-05-08 18:37 | -17.60443 | -63.16236 | 1862 ft | 154 kts | 146° |
| 2026-05-08 18:37 | -17.61340 | -63.15643 | 1682 ft | 154 kts | 147° |
| 2026-05-08 18:38 | -17.62246 | -63.15027 | 1471 ft | 154 kts | 146° |
| 2026-05-08 18:38 | -17.63140 | -63.14434 | 1307 ft | 151 kts | 148° |
| 2026-05-08 18:38 | -17.63960 | -63.13881 | 1228 ft | 113 kts | 147° |
| 2026-05-08 18:38 | -17.64369 | -63.13610 | 1231 ft | 27 kts | 147° |
| 2026-05-08 18:39 | -17.64524 | -63.13506 | 1233 ft | 26 kts | 147° |
| 2026-05-08 18:39 | -17.64680 | -63.13405 | 1232 ft | 27 kts | 149° |
| 2026-05-08 18:39 | -17.64834 | -63.13295 | 1232 ft | 27 kts | 145° |
| 2026-05-08 18:39 | -17.64982 | -63.13192 | 1231 ft | 19 kts | 147° |
| 2026-05-08 18:40 | -17.65076 | -63.13155 | 1231 ft | 13 kts | 192° |
| 2026-05-08 18:40 | -17.65138 | -63.13226 | 1231 ft | 14 kts | 240° |
| 2026-05-08 18:40 | -17.65156 | -63.13312 | 1231 ft | 12 kts | 297° |
| 2026-05-08 18:40 | -17.65092 | -63.13362 | 1231 ft | 12 kts | 331° |
| 2026-05-08 18:41 | -17.65005 | -63.13417 | 1231 ft | 16 kts | 327° |
| 2026-05-08 18:41 | -17.64916 | -63.13477 | 1231 ft | 14 kts | 327° |
| 2026-05-08 18:41 | -17.64837 | -63.13530 | 1231 ft | 13 kts | 328° |
| 2026-05-08 18:41 | -17.64793 | -63.13594 | 1231 ft | 11 kts | 262° |
| 2026-05-08 18:42 | -17.64828 | -63.13655 | 1231 ft | 9 kts | 235° |
| 2026-05-08 18:42 | -17.64863 | -63.13709 | 1231 ft | 11 kts | 236° |
| 2026-05-08 18:42 | -17.64883 | -63.13780 | 1231 ft | 10 kts | 287° |
| 2026-05-08 18:42 | -17.64837 | -63.13822 | 1231 ft | 8 kts | 327° |
| 2026-05-08 18:43 | -17.64840 | -63.13865 | 1231 ft | 6 kts | 237° |
| 2026-05-08 18:43 | -17.64860 | -63.13898 | 1231 ft | 5 kts | 238° |
| 2026-05-08 18:43 | -17.64867 | -63.13908 | 1231 ft | 0 kts | 238° |